createdAt,value
2022-12-23T20:49:56.839Z,22.14
2022-12-23T20:52:29.896Z,22.14
2022-12-23T20:54:57.219Z,21.54
2022-12-23T20:57:33.571Z,21.51
2022-12-23T21:00:04.141Z,21.52
2022-12-23T21:02:37.040Z,21.48
2022-12-23T21:05:06.755Z,21.47
2022-12-23T21:07:43.463Z,21.45
2022-12-23T21:10:17.055Z,21.43
2022-12-23T21:12:49.739Z,21.43
2022-12-23T21:15:22.479Z,21.41
2022-12-23T21:17:55.324Z,21.40
2022-12-23T21:20:25.971Z,21.37
2022-12-23T21:22:58.247Z,21.35
2022-12-23T21:25:31.148Z,21.33
2022-12-23T21:28:04.156Z,21.36
2022-12-23T21:30:34.043Z,21.36
2022-12-23T21:33:04.783Z,21.38
2022-12-23T21:35:36.768Z,21.37
2022-12-23T21:40:49.881Z,21.41
2022-12-23T21:43:23.766Z,21.44
2022-12-23T21:46:03.188Z,21.48
2022-12-23T21:48:39.795Z,21.51
2022-12-23T21:51:13.215Z,21.56
2022-12-23T21:53:47.928Z,21.61
2022-12-23T21:56:25.689Z,21.67
2022-12-23T21:59:00.410Z,21.72
2022-12-23T22:01:30.962Z,21.76
2022-12-23T22:06:32.631Z,21.83
2022-12-23T22:09:10.280Z,21.89
2022-12-23T22:11:43.001Z,21.91
2022-12-23T22:14:17.448Z,21.93
2022-12-23T22:16:57.411Z,21.97
2022-12-23T22:19:25.959Z,22.00
2022-12-23T22:21:57.999Z,22.03
2022-12-23T22:24:32.579Z,22.04
2022-12-23T22:27:08.897Z,22.06
2022-12-23T22:29:45.245Z,22.08
2022-12-23T22:32:23.168Z,22.09
2022-12-23T22:35:01.900Z,22.11
2022-12-23T22:37:36.526Z,22.14
2022-12-23T22:40:09.568Z,22.15
2022-12-23T22:42:42.576Z,22.15
2022-12-23T22:45:18.866Z,22.16
2022-12-23T22:47:52.571Z,22.15
2022-12-23T22:50:22.576Z,22.17
2022-12-23T22:52:55.994Z,22.16
2022-12-23T22:55:26.511Z,22.20
2022-12-23T22:57:53.579Z,22.20
2022-12-23T23:00:28.981Z,22.22
2022-12-23T23:02:59.649Z,22.24
2022-12-23T23:05:39.068Z,22.26
2022-12-23T23:08:12.484Z,22.27
2022-12-23T23:10:53.517Z,22.29
2022-12-23T23:13:25.716Z,22.29
2022-12-23T23:15:57.787Z,22.32
2022-12-23T23:18:26.321Z,22.34
2022-12-23T23:21:00.774Z,22.36
2022-12-23T23:23:35.215Z,22.37
2022-12-23T23:26:15.265Z,22.40
2022-12-23T23:28:59.260Z,22.38
2022-12-23T23:31:41.744Z,22.38
2022-12-23T23:34:25.565Z,22.40
2022-12-23T23:39:48.521Z,22.39
2022-12-23T23:42:24.487Z,22.39
2022-12-23T23:45:00.421Z,22.37
2022-12-23T23:47:32.513Z,22.37
2022-12-23T23:50:07.656Z,22.34
2022-12-23T23:52:41.364Z,22.33
2022-12-23T23:55:15.449Z,22.34
2022-12-23T23:57:51.390Z,22.34
